< Typhoon 201726 2017 Season Typhoon 201801 >
Typhoon 201727 (TEMBIN)
General InformationTrack Information on Google MapsDetailed Wind InformationForecast History on Google MapsAccess Analytics MapList of All Images || NewsDisaster Info.WeblogTrackbackTyphoon FrontTwiphoonTyphoon Now!Typhoon ImaginationJMA Disaster Info. XMLResourceGoogle EarthGE AnimationAtom FeedGeoJSON
Detalied Best Track (Time Zone = UTC)
Year Month Day Hour Lat. Long. Pressure (hPa) Wind (kt) Class Image Chart
2017 12 20 00 8.1 134.2 1006 0 2 Image Chart
2017 12 20 06 8.5 133.0 1004 0 2 Image Chart
2017 12 20 12 8.7 131.9 1002 0 2 Image Chart
2017 12 20 18 8.6 130.9 998 35 3 Image Chart
2017 12 21 00 8.6 129.9 996 40 3 Image Chart
2017 12 21 06 8.4 129.0 994 45 3 Image Chart
2017 12 21 12 8.1 128.0 992 45 3 Image Chart
2017 12 21 18 7.8 126.8 990 50 4 Image Chart
2017 12 22 00 7.7 125.2 992 45 3 Image Chart
2017 12 22 06 7.9 123.6 994 40 3 Image Chart
2017 12 22 12 8.0 122.5 992 45 3 Image Chart
2017 12 22 18 7.8 121.4 990 50 4 Image Chart
2017 12 23 00 7.7 120.3 985 55 4 Image Chart
2017 12 23 06 7.8 118.8 980 60 4 Image Chart
2017 12 23 12 7.8 117.5 975 65 5 Image Chart
2017 12 23 18 8.1 115.9 975 65 5 Image Chart
2017 12 24 00 8.1 114.7 970 70 5 Image Chart
2017 12 24 06 8.2 113.3 970 70 5 Image Chart
2017 12 24 12 8.3 112.0 975 65 5 Image Chart
2017 12 24 18 8.1 111.0 980 55 4 Image Chart
2017 12 25 00 8.0 109.9 992 45 3 Image Chart
2017 12 25 06 8.1 108.8 996 40 3 Image Chart
2017 12 25 12 8.7 107.7 1004 0 2 Image Chart
2017 12 25 18 8.5 105.7 1006 0 2 Image Chart
2017 12 26 00 8.4 104.4 1008 0 2 Image Chart
2017 12 26 06 8.6 103.6 1008 0 2 Image Chart
Japan Meteorological Agency Best Track Data | Correction Date : 2018-01-26
< Typhoon 201726 2017 Season Typhoon 201801 >

Help